createdAt,value
2019-05-16T00:03:10.955Z,1.33
2019-05-16T00:08:13.068Z,2.19
2019-05-16T00:13:14.327Z,1.68
2019-05-16T00:18:12.449Z,1.15
2019-05-16T00:23:24.391Z,2.35
2019-05-16T00:28:23.752Z,0.78
2019-05-16T00:33:28.655Z,1.06
2019-05-16T00:38:27.751Z,0.92
2019-05-16T00:43:37.899Z,1.00
2019-05-16T00:48:39.139Z,0.92
2019-05-16T00:53:42.239Z,0.77
2019-05-16T00:58:42.544Z,0.80
2019-05-16T01:03:41.542Z,1.09
2019-05-16T01:08:52.078Z,0.83
2019-05-16T01:14:00.042Z,0.86
2019-05-16T01:19:08.421Z,0.92
2019-05-16T01:24:07.985Z,0.91
2019-05-16T01:29:04.235Z,1.45
2019-05-16T01:34:18.119Z,0.99
2019-05-16T01:39:18.260Z,0.92
2019-05-16T01:44:32.718Z,0.86
2019-05-16T01:49:32.443Z,1.00
2019-05-16T01:54:32.267Z,1.00
2019-05-16T01:59:43.870Z,1.09
2019-05-16T02:04:45.541Z,1.86
2019-05-16T02:09:47.623Z,1.02
2019-05-16T02:14:48.139Z,2.33
2019-05-16T02:19:48.533Z,0.85
2019-05-16T02:24:58.486Z,1.01
2019-05-16T02:30:15.734Z,0.99
2019-05-16T02:35:25.354Z,0.77
2019-05-16T02:40:43.332Z,0.96
2019-05-16T02:45:43.037Z,0.86
2019-05-16T02:50:41.960Z,0.95
2019-05-16T02:55:55.397Z,0.90
2019-05-16T03:01:01.983Z,0.90
2019-05-16T03:06:01.415Z,0.83
2019-05-16T03:11:20.839Z,0.92
2019-05-16T03:16:25.127Z,0.82
2019-05-16T03:21:37.006Z,0.80
2019-05-16T03:26:27.916Z,0.80
2019-05-16T03:31:34.246Z,0.95
2019-05-16T03:36:24.909Z,0.91
2019-05-16T03:41:32.649Z,0.92
2019-05-16T03:46:30.934Z,0.94
2019-05-16T03:51:45.146Z,1.01
2019-05-16T03:56:35.019Z,0.75
2019-05-16T04:01:50.901Z,1.10
2019-05-16T04:06:36.008Z,1.15
2019-05-16T04:11:50.730Z,1.09
2019-05-16T04:16:41.414Z,1.10
2019-05-16T04:21:50.836Z,1.13
2019-05-16T04:26:51.654Z,1.25
2019-05-16T04:31:56.166Z,1.39
2019-05-16T04:37:00.890Z,1.41
2019-05-16T04:42:01.866Z,1.11
2019-05-16T04:47:01.997Z,1.02
2019-05-16T04:52:05.840Z,1.23
2019-05-16T04:57:11.963Z,1.11
2019-05-16T05:02:15.342Z,1.26
2019-05-16T05:07:16.787Z,1.12
2019-05-16T05:12:33.352Z,1.15
2019-05-16T05:17:30.623Z,1.12
2019-05-16T05:22:39.591Z,1.15
2019-05-16T05:27:36.386Z,0.98
2019-05-16T05:32:57.323Z,1.12
2019-05-16T05:38:00.401Z,0.84
2019-05-16T05:43:00.935Z,0.91
2019-05-16T05:48:02.120Z,1.11
2019-05-16T05:53:01.890Z,0.93
2019-05-16T05:58:13.360Z,0.93
2019-05-16T06:03:22.167Z,0.74
2019-05-16T06:08:21.744Z,0.85
2019-05-16T06:13:36.075Z,0.77
2019-05-16T06:18:25.332Z,0.98
2019-05-16T06:23:36.064Z,0.87
2019-05-16T06:28:35.941Z,0.79
2019-05-16T06:33:46.563Z,0.94
2019-05-16T06:38:46.020Z,0.88
2019-05-16T06:44:07.069Z,1.15
2019-05-16T06:49:05.546Z,0.80
2019-05-16T06:54:20.613Z,0.82
2019-05-16T06:59:20.272Z,0.72
2019-05-16T07:04:39.713Z,0.70
2019-05-16T07:09:41.808Z,0.73
2019-05-16T07:14:50.339Z,0.80
2019-05-16T07:19:54.764Z,0.67
2019-05-16T07:24:53.179Z,0.73
2019-05-16T07:30:05.590Z,0.70
2019-05-16T07:35:04.400Z,0.59
2019-05-16T07:40:26.795Z,0.59
2019-05-16T18:29:26.890Z,1.07
2019-05-16T18:34:28.021Z,1.64
2019-05-16T18:39:27.559Z,1.58
2019-05-16T18:44:36.621Z,1.44
2019-05-16T18:49:47.288Z,1.31
2019-05-16T18:54:38.147Z,1.99
2019-05-16T18:59:46.122Z,1.62
2019-05-16T19:04:46.568Z,1.39
2019-05-16T19:09:45.305Z,1.51
2019-05-16T19:14:57.066Z,1.22
2019-05-16T19:19:57.030Z,1.11
2019-05-16T19:24:58.037Z,1.07
2019-05-16T19:29:59.297Z,1.09
2019-05-16T19:34:59.495Z,0.95
2019-05-16T19:40:13.440Z,1.02
2019-05-16T19:45:20.807Z,0.90
2019-05-16T19:50:32.229Z,2.93
2019-05-16T19:55:32.101Z,5.45
2019-05-16T20:00:46.995Z,1.39
2019-05-16T20:05:47.717Z,1.58
2019-05-16T20:10:49.966Z,1.55
2019-05-16T20:15:52.933Z,1.54
2019-05-16T20:20:56.749Z,1.37
2019-05-16T20:26:07.772Z,2.58
2019-05-16T20:31:01.017Z,2.06
2019-05-16T20:36:01.864Z,3.05
2019-05-16T20:41:00.412Z,3.32
2019-05-16T20:46:02.014Z,2.85
2019-05-16T20:51:08.667Z,3.00
2019-05-16T20:56:21.335Z,2.70
2019-05-16T21:01:18.017Z,3.07
2019-05-16T21:06:19.543Z,2.94
2019-05-16T21:11:29.904Z,2.51
2019-05-16T21:16:34.374Z,2.28
2019-05-16T21:21:28.541Z,2.21
2019-05-16T21:26:41.257Z,2.41
2019-05-16T21:31:36.953Z,2.45
2019-05-16T21:36:36.613Z,2.41
2019-05-16T21:41:47.888Z,2.49
2019-05-16T21:46:50.099Z,2.15
2019-05-16T21:51:52.018Z,2.47
2019-05-16T21:56:57.119Z,3.13
2019-05-16T22:02:01.759Z,2.49
2019-05-16T22:07:04.339Z,2.14
2019-05-16T22:12:13.969Z,2.17
2019-05-16T22:17:16.918Z,2.05
2019-05-16T22:22:19.242Z,2.64
2019-05-16T22:27:18.639Z,2.40
2019-05-16T22:32:33.083Z,2.48
2019-05-16T22:37:46.862Z,2.25
2019-05-16T22:42:37.277Z,2.29
2019-05-16T22:47:51.558Z,1.86
2019-05-16T22:52:58.813Z,2.37
2019-05-16T22:58:07.036Z,2.00
2019-05-16T23:03:12.264Z,1.99
2019-05-16T23:08:11.763Z,1.86
2019-05-16T23:13:17.750Z,1.92
2019-05-16T23:18:18.039Z,1.91
2019-05-16T23:23:26.581Z,1.94
2019-05-16T23:28:27.052Z,1.72
2019-05-16T23:33:26.917Z,1.78
2019-05-16T23:38:27.733Z,2.05
2019-05-16T23:43:28.917Z,1.81
2019-05-16T23:48:28.609Z,1.90
2019-05-16T23:53:38.019Z,1.70
2019-05-16T23:58:47.874Z,1.88
